Impacts TAF Board
For situational awareness. Not to be used for flight planning purposes.
IDs:

KPHL - Philadelphia Intl, PA, US

Issued at 1725 UTC 22 Sep 2018
Updated at 1859 UTC 22 Sep 2018
Potential Impact None Slight Moderate High
Time1854Z 22/19Z 22/20Z 22/21Z 22/22Z 22/23Z 23/00Z 23/01Z 23/02Z 23/03Z 23/04Z 23/05Z 23/06Z 23/07Z>>
Type OBS PRVL PRVL PRVL PRVL PRVL PRVL PRVL PRVL PRVL PRVL PRVL PRVL PRVL
VIS 10 >6 >6 >6 >6 >6 >6 >6 >6 >6 >6 >6 >6 >6
CIG 130 200 200 200 200 200 200 200 200 200 200 200 200 200
Cover BKN BKN BKN BKN BKN OVC OVC OVC OVC OVC OVC OVC OVC OVC
FltCat VFR VFR VFR VFR VFR VFR VFR VFR VFR VFR VFR VFR VFR VFR
WX -- -- -- -- -- -- -- -- -- -- -- -- -- --
WDir 340 360 360 360 360 30 30 30 30 30 30 30 30 30
WSpd 14 10 10 10 10 4 4 4 4 4 4 4 4 4
WGst 21 -- -- -- -- -- -- -- -- -- -- -- -- --
Raw TAF
KPHL 221725Z 2218/2324 36010KT P6SM SCT035 BKN200
  FM222300 03004KT P6SM OVC200
  FM230900 03003KT P6SM BKN100
  FM231400 06006KT 6SM -SHRA BKN030
  FM231800 07005KT 6SM -SHRA BKN015


Raw METAR
KPHL 221854Z 34014G21KT 10SM FEW040 BKN130 BKN160 22/11 A3014 RMK AO2 SLP206 T02220106 $
KPHL 221754Z 36011KT 10SM FEW040 BKN150 24/12 A3013 RMK AO2 SLP203 T02390117 10256 20222 50002 $
KPHL 221654Z 35012KT 10SM FEW035 BKN200 24/12 A3014 RMK AO2 SLP204 T02390117 $
KPHL 221554Z 34012G15KT 10SM FEW032 FEW080 BKN200 23/12 A3013 RMK AO2 SLP201 T02280122 $
KPHL 221544Z 35008KT 10SM FEW032 FEW080 BKN200 23/13 A3012 RMK AO2 T02330128 $

METAR Board
Radar Display
Forecast Discussion
For situational awareness. Not to be used for flight planning purposes.